DLH131 EDDF-EDDH
Flight info
| Callsign | DLH131 |
|---|---|
| Flight time | N/A |
| Altitude | 31000 |
| Route | MARUN3W/25C MARUN Y150 TOLGI DCT SAS/N0393F300 P605 NOLGO NOLGO6A |
| Aircraft | A21N/M-SDE2E3FGHIRWXY/LB1 |
Departure
| Time | 2026-04-19 09:35 |
|---|---|
| Airport | Frankfurt Main Airport (EDDF) |
Arrival
| Time | N/A |
|---|---|
| Airport | Hamburg Helmut Schmidt Airport (EDDH) |
| Time | Latitude | Longitude | Altitude | Speed | Heading |
|---|---|---|---|---|---|
| 2026-04-19 09:12 | 50.04535 | 8.56577 | 376 ft | 0 kts | 115° |
| 2026-04-19 09:23 | 50.04541 | 8.56556 | 376 ft | 3 kts | 114° |
| 2026-04-19 09:23 | 50.04550 | 8.56527 | 374 ft | 3 kts | 114° |
| 2026-04-19 09:23 | 50.04558 | 8.56498 | 372 ft | 3 kts | 115° |
| 2026-04-19 09:24 | 50.04567 | 8.56474 | 373 ft | 3 kts | 142° |
| 2026-04-19 09:24 | 50.04576 | 8.56466 | 372 ft | 3 kts | 175° |
| 2026-04-19 09:24 | 50.04589 | 8.56468 | 372 ft | 1 kts | 205° |
| 2026-04-19 09:24 | 50.04580 | 8.56461 | 372 ft | 2 kts | 211° |
| 2026-04-19 09:25 | 50.04574 | 8.56457 | 372 ft | 0 kts | 205° |
| 2026-04-19 09:28 | 50.04571 | 8.56455 | 372 ft | 3 kts | 205° |
| 2026-04-19 09:28 | 50.04511 | 8.56358 | 377 ft | 15 kts | 249° |
| 2026-04-19 09:28 | 50.04470 | 8.56192 | 377 ft | 18 kts | 249° |
| 2026-04-19 09:29 | 50.04419 | 8.56032 | 371 ft | 17 kts | 207° |
| 2026-04-19 09:29 | 50.04308 | 8.56087 | 373 ft | 18 kts | 136° |
| 2026-04-19 09:29 | 50.04232 | 8.56239 | 376 ft | 20 kts | 156° |
| 2026-04-19 09:29 | 50.04152 | 8.56375 | 371 ft | 21 kts | 62° |
| 2026-04-19 09:30 | 50.04191 | 8.56541 | 375 ft | 23 kts | 69° |
| 2026-04-19 09:30 | 50.04217 | 8.56647 | 373 ft | 0 kts | 72° |
| 2026-04-19 09:30 | 50.04225 | 8.56689 | 374 ft | 6 kts | 73° |
| 2026-04-19 09:30 | 50.04249 | 8.56783 | 373 ft | 26 kts | 71° |
| 2026-04-19 09:31 | 50.04324 | 8.57097 | 376 ft | 38 kts | 71° |
| 2026-04-19 09:31 | 50.04423 | 8.57497 | 372 ft | 40 kts | 71° |
| 2026-04-19 09:31 | 50.04514 | 8.57893 | 374 ft | 41 kts | 70° |
| 2026-04-19 09:31 | 50.04608 | 8.58296 | 376 ft | 40 kts | 69° |
| 2026-04-19 09:32 | 50.04643 | 8.58441 | 372 ft | 0 kts | 69° |
| 2026-04-19 09:32 | 50.04657 | 8.58500 | 377 ft | 16 kts | 75° |
| 2026-04-19 09:32 | 50.04606 | 8.58581 | 374 ft | 0 kts | 157° |
| 2026-04-19 09:33 | 50.04597 | 8.58586 | 377 ft | 0 kts | 160° |
| 2026-04-19 09:33 | 50.04580 | 8.58596 | 375 ft | 15 kts | 160° |
| 2026-04-19 09:34 | 50.04480 | 8.58562 | 378 ft | 14 kts | 245° |
| 2026-04-19 09:34 | 50.04476 | 8.58548 | 378 ft | 0 kts | 248° |
| 2026-04-19 09:35 | 50.04415 | 8.58294 | 375 ft | 66 kts | 251° |
| 2026-04-19 09:35 | 50.04165 | 8.57246 | 378 ft | 137 kts | 250° |
| 2026-04-19 09:35 | 50.03772 | 8.55666 | 750 ft | 161 kts | 254° |
| 2026-04-19 09:35 | 50.03377 | 8.54021 | 1531 ft | 167 kts | 256° |
| 2026-04-19 09:36 | 50.02961 | 8.52253 | 2215 ft | 181 kts | 256° |
| 2026-04-19 09:36 | 50.02488 | 8.50345 | 2887 ft | 199 kts | 249° |
| 2026-04-19 09:36 | 50.01498 | 8.48693 | 3568 ft | 224 kts | 217° |
| 2026-04-19 09:36 | 50.00031 | 8.47792 | 4289 ft | 225 kts | 193° |
| 2026-04-19 09:37 | 49.98480 | 8.47477 | 4787 ft | 224 kts | 189° |
| 2026-04-19 09:37 | 49.96925 | 8.47205 | 4988 ft | 225 kts | 190° |